createdAt,value
2022-10-05T00:00:22.334Z,9.60
2022-10-05T00:03:11.902Z,9.42
2022-10-05T00:05:57.699Z,9.66
2022-10-05T00:08:43.962Z,9.68
2022-10-05T00:11:30.160Z,9.66
2022-10-05T00:14:22.488Z,9.45
2022-10-05T00:17:10.530Z,9.34
2022-10-05T00:19:56.721Z,9.44
2022-10-05T00:22:42.389Z,9.46
2022-10-05T00:25:28.647Z,9.23
2022-10-05T00:28:28.099Z,9.21
2022-10-05T00:31:18.248Z,9.21
2022-10-05T00:34:04.280Z,8.72
2022-10-05T00:36:50.575Z,9.14
2022-10-05T00:39:37.146Z,8.86
2022-10-05T00:42:23.151Z,9.17
2022-10-05T00:45:15.203Z,7.72
2022-10-05T00:48:08.376Z,7.07
2022-10-05T00:50:54.019Z,7.85
2022-10-05T00:53:49.066Z,7.44
2022-10-05T00:56:34.823Z,7.74
2022-10-05T00:59:40.481Z,8.06
2022-10-05T01:02:34.358Z,8.42
2022-10-05T01:05:29.093Z,8.39
2022-10-05T01:08:18.245Z,8.85
2022-10-05T01:11:04.655Z,8.98
2022-10-05T01:13:50.969Z,8.84
2022-10-05T01:16:37.569Z,8.71
2022-10-05T01:19:34.783Z,8.45
2022-10-05T01:22:30.177Z,8.38
2022-10-05T01:25:28.905Z,8.61
2022-10-05T01:28:36.063Z,8.91
2022-10-05T01:31:42.925Z,9.06
2022-10-05T01:34:29.820Z,8.77
2022-10-05T01:37:34.706Z,8.22
2022-10-05T01:40:34.977Z,8.32
2022-10-05T01:43:40.586Z,8.82
2022-10-05T01:46:38.492Z,8.91
2022-10-05T01:49:28.259Z,8.86
2022-10-05T01:52:29.887Z,8.53
2022-10-05T01:55:19.012Z,8.71
2022-10-05T01:58:20.215Z,7.85
2022-10-05T02:01:10.737Z,8.31
2022-10-05T02:04:07.537Z,7.99
2022-10-05T02:06:53.374Z,8.25
2022-10-05T02:09:42.282Z,8.02
2022-10-05T02:12:29.693Z,8.42
2022-10-05T02:15:20.275Z,8.69
2022-10-05T02:18:11.148Z,8.60
2022-10-05T02:20:58.079Z,8.83
2022-10-05T02:23:44.500Z,8.86
2022-10-05T02:26:30.394Z,8.76
2022-10-05T02:29:16.692Z,8.82
2022-10-05T02:32:04.764Z,8.79
2022-10-05T02:34:51.833Z,8.90
2022-10-05T02:37:48.381Z,8.91
2022-10-05T02:40:47.165Z,8.85
2022-10-05T02:43:33.773Z,8.85
2022-10-05T02:46:29.383Z,8.59
2022-10-05T02:49:27.390Z,8.68
2022-10-05T02:52:16.904Z,8.74
2022-10-05T02:55:15.295Z,8.50
2022-10-05T02:58:19.369Z,8.68
2022-10-05T03:01:09.385Z,8.76
2022-10-05T03:04:03.835Z,8.69
2022-10-05T03:06:56.654Z,8.68
2022-10-05T03:09:46.166Z,8.47
2022-10-05T03:12:38.327Z,8.40
2022-10-05T03:15:31.311Z,8.19
2022-10-05T03:18:26.283Z,8.36
2022-10-05T03:21:17.848Z,8.44
2022-10-05T03:24:11.063Z,8.54
2022-10-05T03:27:14.493Z,8.76
2022-10-05T03:30:14.053Z,8.85
2022-10-05T03:33:14.460Z,8.82
2022-10-05T03:36:03.707Z,7.62
2022-10-05T03:38:59.457Z,7.05
2022-10-05T03:41:51.421Z,6.97
2022-10-05T03:44:43.811Z,7.56
2022-10-05T03:47:36.824Z,7.48
2022-10-05T03:50:25.827Z,6.36
2022-10-05T03:53:19.217Z,6.47
2022-10-05T03:56:07.498Z,7.13
2022-10-05T03:58:55.786Z,7.11
2022-10-05T04:01:48.037Z,7.77
2022-10-05T04:04:34.326Z,7.68
2022-10-05T04:07:33.760Z,7.68
2022-10-05T04:10:25.560Z,8.10
2022-10-05T04:13:11.749Z,8.15
2022-10-05T04:16:06.947Z,7.84
2022-10-05T04:19:03.692Z,7.80
2022-10-05T04:21:58.049Z,7.70
2022-10-05T04:24:48.253Z,8.11
2022-10-05T04:27:36.187Z,8.20
2022-10-05T04:30:22.472Z,7.94
2022-10-05T04:33:10.127Z,8.09
2022-10-05T04:36:05.361Z,8.24
2022-10-05T04:38:57.983Z,8.19
2022-10-05T04:41:47.218Z,7.65
2022-10-05T04:44:55.832Z,7.53
2022-10-05T04:48:07.262Z,7.71
2022-10-05T04:51:13.814Z,7.69
2022-10-05T04:54:05.933Z,7.80
2022-10-05T04:56:56.406Z,7.95
2022-10-05T04:59:45.092Z,8.14
2022-10-05T05:02:35.572Z,8.21
2022-10-05T05:05:29.684Z,8.01
2022-10-05T05:08:31.579Z,7.69
2022-10-05T05:11:34.989Z,7.82
2022-10-05T05:14:27.346Z,7.77
2022-10-05T05:17:17.402Z,7.67
2022-10-05T05:20:20.727Z,7.79
2022-10-05T05:23:10.312Z,7.57
2022-10-05T05:26:08.975Z,7.75
2022-10-05T05:29:14.789Z,7.52
2022-10-05T05:32:04.448Z,8.00
2022-10-05T05:34:56.519Z,7.56
2022-10-05T05:37:45.841Z,6.08
2022-10-05T05:40:31.717Z,6.40
2022-10-05T05:43:28.659Z,6.61
2022-10-05T05:46:15.897Z,6.51
2022-10-05T05:49:03.567Z,5.77
2022-10-05T05:51:54.513Z,6.52
2022-10-05T05:54:42.183Z,6.63
2022-10-05T05:57:30.009Z,6.40
2022-10-05T06:00:21.132Z,6.66
2022-10-05T06:03:19.438Z,7.58
2022-10-05T06:06:32.493Z,7.80
2022-10-05T06:09:18.560Z,8.00
2022-10-05T06:12:28.811Z,8.27
2022-10-05T06:15:15.128Z,8.27
2022-10-05T06:18:02.872Z,8.51
2022-10-05T06:20:51.984Z,8.26
2022-10-05T06:23:58.151Z,7.02
2022-10-05T06:27:00.276Z,7.43
2022-10-05T06:29:46.093Z,8.38
2022-10-05T06:32:41.718Z,8.84
2022-10-05T06:39:49.259Z,8.96
2022-10-05T06:42:59.290Z,9.03
2022-10-05T06:45:53.093Z,9.06
2022-10-05T06:48:49.222Z,9.42
2022-10-05T06:51:56.935Z,9.65
2022-10-05T06:54:46.481Z,9.34
2022-10-05T06:58:01.130Z,9.51
2022-10-05T07:00:53.345Z,10.20
2022-10-05T07:03:58.567Z,9.62
2022-10-05T07:06:52.685Z,10.03
2022-10-05T07:10:17.094Z,10.39
2022-10-05T07:13:41.337Z,10.90
2022-10-05T07:17:06.511Z,11.22
2022-10-05T07:20:20.049Z,11.19
2022-10-05T07:23:24.990Z,11.56
2022-10-05T07:26:32.481Z,11.76
2022-10-05T07:29:28.393Z,11.47
2022-10-05T07:32:31.203Z,12.21
2022-10-05T07:35:38.998Z,11.58
2022-10-05T07:38:32.651Z,11.02
2022-10-05T07:41:25.878Z,12.10
2022-10-05T07:44:27.594Z,12.45
2022-10-05T07:47:41.468Z,12.83
2022-10-05T07:50:36.863Z,13.11
2022-10-05T07:53:28.768Z,13.07
2022-10-05T07:56:21.967Z,13.18
2022-10-05T07:59:55.523Z,13.43
2022-10-05T08:02:52.573Z,13.87
2022-10-05T08:05:41.008Z,13.68
2022-10-05T08:08:48.265Z,14.08
2022-10-05T08:11:43.978Z,14.45
2022-10-05T08:14:58.986Z,14.47
2022-10-05T08:18:00.616Z,14.76
2022-10-05T08:20:53.487Z,14.78
2022-10-05T08:23:42.984Z,15.19
2022-10-05T08:26:33.062Z,15.63
2022-10-05T08:29:32.716Z,15.34
2022-10-05T08:32:21.866Z,15.67
2022-10-05T08:35:25.392Z,15.85
2022-10-05T08:38:18.580Z,15.77
2022-10-05T08:41:23.672Z,15.63
2022-10-05T08:44:12.404Z,15.81
2022-10-05T08:47:05.462Z,16.03
2022-10-05T08:50:10.236Z,16.19
2022-10-05T08:53:15.649Z,16.49
2022-10-05T08:56:04.696Z,16.41
2022-10-05T08:58:57.734Z,16.09
2022-10-05T09:02:05.039Z,16.53
2022-10-05T09:04:51.449Z,16.30
2022-10-05T09:07:40.298Z,16.61
2022-10-05T09:11:03.118Z,15.68
2022-10-05T09:14:08.328Z,16.87
2022-10-05T09:17:12.058Z,16.70
2022-10-05T09:20:00.534Z,17.42
2022-10-05T09:22:55.476Z,17.83
2022-10-05T09:25:43.353Z,17.68
2022-10-05T09:28:31.922Z,18.34
2022-10-05T09:31:27.244Z,18.71
2022-10-05T09:34:36.553Z,19.29
2022-10-05T09:37:22.652Z,19.45
2022-10-05T09:40:12.013Z,17.61
2022-10-05T09:43:10.066Z,19.48
2022-10-05T09:45:56.257Z,19.54
2022-10-05T09:48:48.108Z,19.62
2022-10-05T09:51:46.502Z,20.56
2022-10-05T09:54:50.770Z,21.31
2022-10-05T09:57:42.288Z,21.24
2022-10-05T10:00:54.111Z,18.32
2022-10-05T10:03:52.587Z,18.31
2022-10-05T10:06:38.297Z,18.82
2022-10-05T10:09:26.955Z,18.25
2022-10-05T10:12:12.987Z,18.27
2022-10-05T10:15:18.549Z,18.10
2022-10-05T10:18:23.437Z,19.45
2022-10-05T10:21:48.993Z,18.10
2022-10-05T10:24:35.474Z,19.98
2022-10-05T10:27:40.245Z,20.47
2022-10-05T10:30:35.743Z,21.60
2022-10-05T10:33:27.561Z,20.21
2022-10-05T10:36:17.334Z,19.68
2022-10-05T10:39:06.244Z,21.21
2022-10-05T10:42:12.256Z,21.29
2022-10-05T10:45:16.772Z,20.95
2022-10-05T10:48:04.228Z,19.75
2022-10-05T10:50:57.073Z,18.71
2022-10-05T10:54:03.589Z,17.54
2022-10-05T10:56:58.899Z,18.50
2022-10-05T10:59:47.881Z,19.67
2022-10-05T11:02:37.513Z,19.64
2022-10-05T11:05:38.300Z,19.89
2022-10-05T11:08:43.514Z,20.00
2022-10-05T11:11:30.928Z,19.81
2022-10-05T11:14:36.028Z,19.72
2022-10-05T11:17:31.774Z,19.31
2022-10-05T11:20:28.023Z,19.62
2022-10-05T11:23:28.155Z,18.93
2022-10-05T11:26:20.192Z,19.48
2022-10-05T11:29:30.290Z,19.56
2022-10-05T11:32:25.672Z,19.85
2022-10-05T11:35:14.468Z,20.04
2022-10-05T11:38:00.880Z,20.38
2022-10-05T11:40:55.817Z,20.60
2022-10-05T11:44:04.600Z,20.96
2022-10-05T11:46:52.779Z,20.76
2022-10-05T11:49:59.390Z,18.69
2022-10-05T11:52:51.938Z,18.92
2022-10-05T11:55:57.814Z,19.69
2022-10-05T11:58:47.673Z,20.12
2022-10-05T12:01:37.882Z,20.60
2022-10-05T12:04:30.488Z,20.69
2022-10-05T12:07:19.789Z,19.83
2022-10-05T12:10:17.023Z,19.70
2022-10-05T12:13:24.687Z,19.43
2022-10-05T12:16:17.276Z,19.42
2022-10-05T12:19:04.868Z,18.94
2022-10-05T12:21:57.061Z,19.86
2022-10-05T12:24:47.722Z,19.39
2022-10-05T12:27:36.263Z,18.58
2022-10-05T12:30:28.676Z,18.05
2022-10-05T12:33:18.266Z,18.75
2022-10-05T12:36:21.365Z,19.26
2022-10-05T12:39:20.032Z,19.28
2022-10-05T12:42:26.005Z,19.03
2022-10-05T12:45:12.079Z,18.83
2022-10-05T12:48:36.606Z,19.38
2022-10-05T12:51:28.819Z,20.45
2022-10-05T12:54:14.678Z,19.68
2022-10-05T12:57:09.845Z,19.70
2022-10-05T13:00:08.250Z,20.19
2022-10-05T13:02:57.445Z,21.14
2022-10-05T13:05:44.783Z,21.55
2022-10-05T13:08:34.167Z,21.60
2022-10-05T13:11:29.060Z,21.90
2022-10-05T13:14:18.260Z,22.58
2022-10-05T13:17:10.434Z,21.45
2022-10-05T13:19:57.499Z,22.33
2022-10-05T13:22:43.623Z,22.19
2022-10-05T13:25:31.499Z,22.56
2022-10-05T13:28:20.092Z,21.94
2022-10-05T13:31:07.005Z,21.95
2022-10-05T13:34:05.393Z,20.79
2022-10-05T13:37:00.368Z,21.44
2022-10-05T13:39:46.314Z,21.45
2022-10-05T13:42:53.817Z,21.68
2022-10-05T13:45:41.467Z,21.96
2022-10-05T13:48:30.945Z,21.66
2022-10-05T13:51:46.277Z,22.09
2022-10-05T13:54:37.365Z,21.78
2022-10-05T13:57:22.839Z,21.15
2022-10-05T14:00:16.572Z,21.78
2022-10-05T14:03:02.656Z,21.29
2022-10-05T14:05:57.514Z,20.57
2022-10-05T14:08:48.538Z,19.81
2022-10-05T14:11:34.995Z,20.56
2022-10-05T14:14:30.441Z,20.59
2022-10-05T14:17:36.369Z,20.48
2022-10-05T14:20:23.793Z,20.88
2022-10-05T14:23:18.531Z,20.71
2022-10-05T14:26:17.935Z,21.39
2022-10-05T14:29:17.750Z,21.18
2022-10-05T14:32:14.535Z,21.12
2022-10-05T14:35:05.229Z,20.91
2022-10-05T14:37:56.199Z,21.16
2022-10-05T14:40:42.133Z,21.58
2022-10-05T14:43:28.417Z,21.68
2022-10-05T14:46:23.406Z,21.29
2022-10-05T14:49:25.753Z,21.36
2022-10-05T14:52:44.931Z,21.18
2022-10-05T14:55:55.770Z,21.18
2022-10-05T14:59:00.776Z,20.97
2022-10-05T15:01:55.367Z,20.96
2022-10-05T15:04:44.719Z,20.33
2022-10-05T15:07:41.405Z,20.52
2022-10-05T15:10:29.458Z,20.81
2022-10-05T15:13:16.473Z,20.86
2022-10-05T15:16:05.370Z,20.73
2022-10-05T15:19:01.546Z,20.40
2022-10-05T15:22:06.128Z,20.50
2022-10-05T15:24:57.750Z,20.44
2022-10-05T15:27:53.995Z,19.88
2022-10-05T15:30:41.367Z,19.66
2022-10-05T15:33:50.669Z,19.76
2022-10-05T15:36:43.375Z,19.42
2022-10-05T15:39:35.561Z,19.24
2022-10-05T15:42:43.837Z,19.57
2022-10-05T15:45:32.388Z,19.37
2022-10-05T15:48:29.165Z,19.17
2022-10-05T15:51:15.333Z,18.83
2022-10-05T15:54:31.874Z,18.58
2022-10-05T15:57:36.699Z,18.58
2022-10-05T16:00:23.198Z,18.78
2022-10-05T16:03:24.744Z,18.68
2022-10-05T16:06:33.783Z,18.61
2022-10-05T16:09:23.222Z,18.26
2022-10-05T16:12:09.780Z,18.33
2022-10-05T16:14:59.809Z,18.49
2022-10-05T16:17:57.973Z,18.35
2022-10-05T16:20:52.309Z,18.24
2022-10-05T16:23:53.325Z,18.18
2022-10-05T16:26:59.191Z,18.13
2022-10-05T16:29:57.425Z,18.05
2022-10-05T16:32:50.802Z,18.36
2022-10-05T16:35:44.351Z,18.38
2022-10-05T16:38:46.960Z,18.22
2022-10-05T16:41:39.690Z,18.33
2022-10-05T16:44:44.629Z,18.14
2022-10-05T16:47:33.735Z,18.44
2022-10-05T16:50:29.176Z,18.40
2022-10-05T16:53:17.110Z,18.22
2022-10-05T16:56:04.356Z,18.30
2022-10-05T16:58:50.396Z,18.31
2022-10-05T17:01:42.251Z,17.76
2022-10-05T17:04:28.301Z,17.75
2022-10-05T17:07:36.317Z,17.68
2022-10-05T17:10:41.134Z,17.48
2022-10-05T17:13:46.213Z,17.25
2022-10-05T17:16:33.176Z,17.40
2022-10-05T17:19:25.428Z,17.47
2022-10-05T17:22:23.607Z,17.57
2022-10-05T17:25:12.450Z,17.66
2022-10-05T17:28:18.655Z,17.61
2022-10-05T17:31:18.202Z,17.45
2022-10-05T17:34:10.598Z,17.46
2022-10-05T17:36:59.763Z,17.14
2022-10-05T17:39:46.984Z,16.55
2022-10-05T17:42:34.346Z,17.05
2022-10-05T17:45:20.163Z,16.56
2022-10-05T17:48:09.493Z,15.85
2022-10-05T17:51:14.367Z,16.04
2022-10-05T17:54:37.129Z,16.26
2022-10-05T17:57:24.623Z,15.84
2022-10-05T18:00:34.331Z,16.04
2022-10-05T18:03:40.704Z,16.32
2022-10-05T18:06:26.453Z,15.82
2022-10-05T18:09:17.503Z,15.46
2022-10-05T18:12:19.373Z,15.34
2022-10-05T18:15:05.780Z,15.45
2022-10-05T18:17:51.744Z,15.40
2022-10-05T18:20:39.833Z,15.60
2022-10-05T18:23:26.309Z,15.34
2022-10-05T18:26:20.504Z,15.04
2022-10-05T18:29:39.461Z,15.12
2022-10-05T18:32:45.367Z,15.18
2022-10-05T18:35:39.929Z,15.10
2022-10-05T18:38:32.290Z,14.89
2022-10-05T18:41:38.474Z,15.01
2022-10-05T18:44:45.085Z,15.00
2022-10-05T18:47:57.311Z,15.32
2022-10-05T18:50:43.506Z,15.34
2022-10-05T18:56:58.551Z,14.59
2022-10-05T18:59:46.506Z,14.64
2022-10-05T19:02:36.660Z,14.92
2022-10-05T19:05:48.925Z,14.77
2022-10-05T19:08:42.831Z,14.79
2022-10-05T19:11:28.486Z,14.82
2022-10-05T19:14:21.059Z,14.60
2022-10-05T19:17:26.349Z,14.83
2022-10-05T19:20:17.397Z,14.54
2022-10-05T19:23:12.533Z,14.83
2022-10-05T19:26:03.280Z,14.37
2022-10-05T19:29:05.361Z,14.43
2022-10-05T19:32:00.002Z,14.29
2022-10-05T19:34:49.880Z,14.18
2022-10-05T19:37:48.347Z,14.36
2022-10-05T19:40:43.472Z,14.71
2022-10-05T19:43:29.936Z,14.48
2022-10-05T19:46:19.104Z,15.00
2022-10-05T19:49:08.910Z,14.09
2022-10-05T19:51:55.834Z,13.86
2022-10-05T19:54:42.622Z,13.76
2022-10-05T19:57:28.774Z,14.05
2022-10-05T20:00:20.914Z,13.57
2022-10-05T20:03:12.113Z,14.09
2022-10-05T20:06:01.747Z,13.61
2022-10-05T20:08:48.684Z,13.63
2022-10-05T20:11:35.074Z,13.85
2022-10-05T20:14:28.873Z,13.62
2022-10-05T20:17:44.382Z,13.27
2022-10-05T20:20:35.735Z,13.84
2022-10-05T20:23:25.283Z,14.23
2022-10-05T20:26:49.884Z,13.28
2022-10-05T20:29:40.169Z,13.27
2022-10-05T20:32:30.589Z,12.79
2022-10-05T20:35:23.026Z,11.67
2022-10-05T20:38:08.908Z,12.97
2022-10-05T20:40:54.717Z,12.99
2022-10-05T20:43:40.994Z,13.48
2022-10-05T20:46:26.848Z,13.94
2022-10-05T20:49:13.400Z,13.83
2022-10-05T20:51:59.406Z,13.29
2022-10-05T20:57:42.097Z,13.43
2022-10-05T21:00:48.708Z,12.86
2022-10-05T21:03:34.579Z,13.65
2022-10-05T21:06:21.411Z,13.21
2022-10-05T21:09:11.333Z,13.46
2022-10-05T21:11:57.942Z,13.21
2022-10-05T21:14:43.631Z,13.46
2022-10-05T21:17:29.757Z,13.48
2022-10-05T21:20:15.650Z,13.92
2022-10-05T21:23:02.164Z,13.98
2022-10-05T21:25:48.693Z,14.14
2022-10-05T21:28:34.933Z,13.52
2022-10-05T21:31:20.859Z,13.56
2022-10-05T21:34:07.325Z,13.86
2022-10-05T21:36:53.518Z,14.00
2022-10-05T21:39:39.933Z,14.05
2022-10-05T21:42:26.043Z,13.40
2022-10-05T21:45:12.344Z,13.27
2022-10-05T21:47:58.399Z,13.38
2022-10-05T21:50:44.944Z,13.54
2022-10-05T21:53:31.048Z,13.12
2022-10-05T21:56:17.354Z,12.97
2022-10-05T21:59:03.994Z,13.35
2022-10-05T22:01:49.993Z,13.62
2022-10-05T22:04:35.870Z,13.50
2022-10-05T22:07:21.684Z,13.45
2022-10-05T22:10:07.814Z,13.48
2022-10-05T22:12:53.899Z,13.50
2022-10-05T22:15:40.632Z,13.22
2022-10-05T22:18:26.972Z,12.72
2022-10-05T22:21:13.658Z,13.13
2022-10-05T22:24:00.269Z,13.26
2022-10-05T22:26:47.071Z,13.22
2022-10-05T22:29:32.979Z,12.71
2022-10-05T22:32:19.574Z,12.30
2022-10-05T22:35:09.188Z,12.06
2022-10-05T22:37:57.726Z,12.30
2022-10-05T22:40:43.688Z,12.69
2022-10-05T22:43:30.174Z,12.88
2022-10-05T22:46:16.095Z,12.75
2022-10-05T22:49:02.646Z,12.89
2022-10-05T22:51:49.317Z,12.99
2022-10-05T22:54:37.317Z,13.09
2022-10-05T22:57:23.225Z,13.08
2022-10-05T23:00:10.502Z,12.95
2022-10-05T23:02:56.322Z,12.89
2022-10-05T23:05:42.813Z,12.92
2022-10-05T23:08:30.497Z,12.70
2022-10-05T23:11:18.272Z,12.77
2022-10-05T23:14:04.056Z,12.46
2022-10-05T23:16:50.405Z,12.40
2022-10-05T23:19:36.068Z,12.57
2022-10-05T23:22:21.986Z,12.83
2022-10-05T23:25:07.650Z,12.73
2022-10-05T23:27:53.702Z,12.76
2022-10-05T23:30:39.711Z,12.50
2022-10-05T23:33:26.196Z,12.55
2022-10-05T23:36:21.817Z,12.49
2022-10-05T23:39:07.672Z,12.81
2022-10-05T23:41:53.503Z,12.52
2022-10-05T23:44:40.100Z,12.33
2022-10-05T23:47:25.928Z,12.36
2022-10-05T23:50:11.973Z,12.72
2022-10-05T23:52:57.795Z,12.80
2022-10-05T23:55:44.194Z,12.82
2022-10-05T23:58:30.091Z,12.81
